sensor_id;sensor_type;location;lat;lon;timestamp;temperature;humidity
57026;DHT22;43961;52.940;6.834;2023-03-03T00:00:29;1.20;99.90
57026;DHT22;43961;52.940;6.834;2023-03-03T00:03:00;1.20;99.90
57026;DHT22;43961;52.940;6.834;2023-03-03T00:05:31;1.10;99.90
57026;DHT22;43961;52.940;6.834;2023-03-03T00:07:58;1.10;99.90
57026;DHT22;43961;52.940;6.834;2023-03-03T00:10:24;1.10;99.90
57026;DHT22;43961;52.940;6.834;2023-03-03T00:12:50;1.10;99.90
57026;DHT22;43961;52.940;6.834;2023-03-03T00:15:22;1.10;99.90
57026;DHT22;43961;52.940;6.834;2023-03-03T00:17:48;1.10;99.90
57026;DHT22;43961;52.940;6.834;2023-03-03T00:20:40;1.10;99.90
57026;DHT22;43961;52.940;6.834;2023-03-03T00:25:54;1.10;99.90
57026;DHT22;43961;52.940;6.834;2023-03-03T00:30:49;1.10;99.90
57026;DHT22;43961;52.940;6.834;2023-03-03T00:33:42;1.00;99.90
57026;DHT22;43961;52.940;6.834;2023-03-03T00:39:10;1.10;99.90
57026;DHT22;43961;52.940;6.834;2023-03-03T00:41:38;1.00;99.90
57026;DHT22;43961;52.940;6.834;2023-03-03T00:44:43;1.00;99.90
57026;DHT22;43961;52.940;6.834;2023-03-03T00:47:38;1.10;99.90
57026;DHT22;43961;52.940;6.834;2023-03-03T00:53:00;1.10;99.90
57026;DHT22;43961;52.940;6.834;2023-03-03T00:55:25;1.10;99.90
57026;DHT22;43961;52.940;6.834;2023-03-03T00:57:52;1.10;99.90
57026;DHT22;43961;52.940;6.834;2023-03-03T01:00:17;1.10;99.90
57026;DHT22;43961;52.940;6.834;2023-03-03T01:02:43;1.10;99.90
57026;DHT22;43961;52.940;6.834;2023-03-03T01:05:15;1.10;99.90
57026;DHT22;43961;52.940;6.834;2023-03-03T01:07:41;1.10;99.90
57026;DHT22;43961;52.940;6.834;2023-03-03T01:10:07;1.20;99.90
57026;DHT22;43961;52.940;6.834;2023-03-03T01:12:33;1.10;99.90
57026;DHT22;43961;52.940;6.834;2023-03-03T01:15:01;1.20;99.90
57026;DHT22;43961;52.940;6.834;2023-03-03T01:17:27;1.20;99.90
57026;DHT22;43961;52.940;6.834;2023-03-03T01:19:53;1.20;99.90
57026;DHT22;43961;52.940;6.834;2023-03-03T01:22:18;1.10;99.90
57026;DHT22;43961;52.940;6.834;2023-03-03T01:24:44;1.10;99.90
57026;DHT22;43961;52.940;6.834;2023-03-03T01:27:10;1.10;99.90
57026;DHT22;43961;52.940;6.834;2023-03-03T01:29:35;1.10;99.90
57026;DHT22;43961;52.940;6.834;2023-03-03T01:32:01;1.20;99.90
57026;DHT22;43961;52.940;6.834;2023-03-03T01:34:27;1.20;99.90
57026;DHT22;43961;52.940;6.834;2023-03-03T01:36:52;1.20;99.90
57026;DHT22;43961;52.940;6.834;2023-03-03T01:39:18;1.20;99.90
57026;DHT22;43961;52.940;6.834;2023-03-03T01:41:44;1.20;99.90
57026;DHT22;43961;52.940;6.834;2023-03-03T01:44:15;1.20;99.90
57026;DHT22;43961;52.940;6.834;2023-03-03T01:46:51;1.30;99.90
57026;DHT22;43961;52.940;6.834;2023-03-03T01:49:34;1.30;99.90
57026;DHT22;43961;52.940;6.834;2023-03-03T01:52:03;1.30;99.90
57026;DHT22;43961;52.940;6.834;2023-03-03T01:54:38;1.30;99.90
57026;DHT22;43961;52.940;6.834;2023-03-03T01:57:12;1.30;99.90
57026;DHT22;43961;52.940;6.834;2023-03-03T01:59:43;1.40;99.90
57026;DHT22;43961;52.940;6.834;2023-03-03T02:02:13;1.40;99.90
57026;DHT22;43961;52.940;6.834;2023-03-03T02:04:39;1.40;99.90
57026;DHT22;43961;52.940;6.834;2023-03-03T02:07:07;1.40;99.90
57026;DHT22;43961;52.940;6.834;2023-03-03T02:09:47;1.40;99.90
57026;DHT22;43961;52.940;6.834;2023-03-03T02:12:17;1.50;99.90
57026;DHT22;43961;52.940;6.834;2023-03-03T02:14:44;1.50;99.90
57026;DHT22;43961;52.940;6.834;2023-03-03T02:17:10;1.50;99.90
57026;DHT22;43961;52.940;6.834;2023-03-03T02:22:26;1.60;99.90
57026;DHT22;43961;52.940;6.834;2023-03-03T02:24:59;1.60;99.90
57026;DHT22;43961;52.940;6.834;2023-03-03T02:27:28;1.60;99.90
57026;DHT22;43961;52.940;6.834;2023-03-03T02:29:55;1.60;99.90
57026;DHT22;43961;52.940;6.834;2023-03-03T02:32:20;1.60;99.90
57026;DHT22;43961;52.940;6.834;2023-03-03T02:34:49;1.70;99.90
57026;DHT22;43961;52.940;6.834;2023-03-03T02:37:15;1.60;99.90
57026;DHT22;43961;52.940;6.834;2023-03-03T02:39:40;1.70;99.90
57026;DHT22;43961;52.940;6.834;2023-03-03T02:42:15;1.70;99.90
57026;DHT22;43961;52.940;6.834;2023-03-03T02:44:43;1.70;99.90
57026;DHT22;43961;52.940;6.834;2023-03-03T02:47:08;1.70;99.90
57026;DHT22;43961;52.940;6.834;2023-03-03T02:49:35;1.70;99.90
57026;DHT22;43961;52.940;6.834;2023-03-03T02:52:04;1.70;99.90
57026;DHT22;43961;52.940;6.834;2023-03-03T02:54:31;1.80;99.90
57026;DHT22;43961;52.940;6.834;2023-03-03T02:56:59;1.80;99.90
57026;DHT22;43961;52.940;6.834;2023-03-03T02:59:24;1.90;99.90
57026;DHT22;43961;52.940;6.834;2023-03-03T03:01:51;1.90;99.90
57026;DHT22;43961;52.940;6.834;2023-03-03T03:04:19;1.90;99.90
57026;DHT22;43961;52.940;6.834;2023-03-03T03:06:45;1.90;99.90
57026;DHT22;43961;52.940;6.834;2023-03-03T03:09:12;1.90;99.90
57026;DHT22;43961;52.940;6.834;2023-03-03T03:11:38;1.90;99.90
57026;DHT22;43961;52.940;6.834;2023-03-03T03:14:05;1.90;99.90
57026;DHT22;43961;52.940;6.834;2023-03-03T03:16:31;2.00;99.90
57026;DHT22;43961;52.940;6.834;2023-03-03T03:18:58;2.00;99.90
57026;DHT22;43961;52.940;6.834;2023-03-03T03:21:24;2.00;99.90
57026;DHT22;43961;52.940;6.834;2023-03-03T03:23:49;2.00;99.90
57026;DHT22;43961;52.940;6.834;2023-03-03T03:26:15;2.00;99.90
57026;DHT22;43961;52.940;6.834;2023-03-03T03:28:41;2.00;99.90
57026;DHT22;43961;52.940;6.834;2023-03-03T03:31:09;2.00;99.90
57026;DHT22;43961;52.940;6.834;2023-03-03T03:33:35;2.00;99.90
57026;DHT22;43961;52.940;6.834;2023-03-03T03:36:01;2.10;99.90
57026;DHT22;43961;52.940;6.834;2023-03-03T03:38:28;2.00;99.90
57026;DHT22;43961;52.940;6.834;2023-03-03T03:40:54;2.10;99.90
57026;DHT22;43961;52.940;6.834;2023-03-03T03:43:21;2.00;99.90
57026;DHT22;43961;52.940;6.834;2023-03-03T03:45:46;2.10;99.90
57026;DHT22;43961;52.940;6.834;2023-03-03T03:48:12;2.10;99.90
57026;DHT22;43961;52.940;6.834;2023-03-03T03:50:38;2.10;99.90
57026;DHT22;43961;52.940;6.834;2023-03-03T03:53:06;2.10;99.90
57026;DHT22;43961;52.940;6.834;2023-03-03T03:55:32;2.10;99.90
57026;DHT22;43961;52.940;6.834;2023-03-03T03:57:58;2.10;99.90
57026;DHT22;43961;52.940;6.834;2023-03-03T04:00:24;2.20;99.90
57026;DHT22;43961;52.940;6.834;2023-03-03T04:02:50;2.20;99.90
57026;DHT22;43961;52.940;6.834;2023-03-03T04:05:16;2.20;99.90
57026;DHT22;43961;52.940;6.834;2023-03-03T04:07:42;2.20;99.90
57026;DHT22;43961;52.940;6.834;2023-03-03T04:10:08;2.20;99.90
57026;DHT22;43961;52.940;6.834;2023-03-03T04:12:34;2.20;99.90
57026;DHT22;43961;52.940;6.834;2023-03-03T04:15:08;2.20;99.90
57026;DHT22;43961;52.940;6.834;2023-03-03T04:17:34;2.20;99.90
57026;DHT22;43961;52.940;6.834;2023-03-03T04:20:00;2.20;99.90
57026;DHT22;43961;52.940;6.834;2023-03-03T04:22:28;2.20;99.90
57026;DHT22;43961;52.940;6.834;2023-03-03T04:25:02;2.20;99.90
57026;DHT22;43961;52.940;6.834;2023-03-03T04:27:34;2.20;99.90
57026;DHT22;43961;52.940;6.834;2023-03-03T04:30:00;2.20;99.90
57026;DHT22;43961;52.940;6.834;2023-03-03T04:32:26;2.20;99.90
57026;DHT22;43961;52.940;6.834;2023-03-03T04:34:53;2.20;99.90
57026;DHT22;43961;52.940;6.834;2023-03-03T04:37:19;2.20;99.90
57026;DHT22;43961;52.940;6.834;2023-03-03T04:39:44;2.20;99.90
57026;DHT22;43961;52.940;6.834;2023-03-03T04:42:10;2.20;99.90
57026;DHT22;43961;52.940;6.834;2023-03-03T04:44:36;2.20;99.90
57026;DHT22;43961;52.940;6.834;2023-03-03T04:47:02;2.20;99.90
57026;DHT22;43961;52.940;6.834;2023-03-03T04:49:28;2.10;99.90
57026;DHT22;43961;52.940;6.834;2023-03-03T04:51:54;2.10;99.90
57026;DHT22;43961;52.940;6.834;2023-03-03T04:54:19;2.10;99.90
57026;DHT22;43961;52.940;6.834;2023-03-03T04:56:45;2.10;99.90
57026;DHT22;43961;52.940;6.834;2023-03-03T04:59:11;2.10;99.90
57026;DHT22;43961;52.940;6.834;2023-03-03T05:01:36;2.10;99.90
57026;DHT22;43961;52.940;6.834;2023-03-03T05:04:02;2.10;99.90
57026;DHT22;43961;52.940;6.834;2023-03-03T05:06:28;2.00;99.90
57026;DHT22;43961;52.940;6.834;2023-03-03T05:08:55;1.90;99.90
57026;DHT22;43961;52.940;6.834;2023-03-03T05:11:20;2.00;99.90
57026;DHT22;43961;52.940;6.834;2023-03-03T05:13:46;2.00;99.90
57026;DHT22;43961;52.940;6.834;2023-03-03T05:16:13;2.00;99.90
57026;DHT22;43961;52.940;6.834;2023-03-03T05:18:40;2.10;99.90
57026;DHT22;43961;52.940;6.834;2023-03-03T05:21:06;2.00;99.90
57026;DHT22;43961;52.940;6.834;2023-03-03T05:23:32;2.10;99.90
57026;DHT22;43961;52.940;6.834;2023-03-03T05:25:57;2.10;99.90
57026;DHT22;43961;52.940;6.834;2023-03-03T05:28:23;2.00;99.90
57026;DHT22;43961;52.940;6.834;2023-03-03T05:30:49;2.00;99.90
57026;DHT22;43961;52.940;6.834;2023-03-03T05:33:16;2.00;99.90
57026;DHT22;43961;52.940;6.834;2023-03-03T05:35:42;2.00;99.90
57026;DHT22;43961;52.940;6.834;2023-03-03T05:38:08;2.10;99.90
57026;DHT22;43961;52.940;6.834;2023-03-03T05:40:33;2.10;99.90
57026;DHT22;43961;52.940;6.834;2023-03-03T05:42:59;2.10;99.90
57026;DHT22;43961;52.940;6.834;2023-03-03T05:45:25;2.10;99.90
57026;DHT22;43961;52.940;6.834;2023-03-03T05:47:51;2.10;99.90
57026;DHT22;43961;52.940;6.834;2023-03-03T05:50:18;2.10;99.90
57026;DHT22;43961;52.940;6.834;2023-03-03T05:52:46;2.20;99.90
57026;DHT22;43961;52.940;6.834;2023-03-03T05:55:12;2.20;99.90
57026;DHT22;43961;52.940;6.834;2023-03-03T05:57:37;2.20;99.90
57026;DHT22;43961;52.940;6.834;2023-03-03T06:00:04;2.20;99.90
57026;DHT22;43961;52.940;6.834;2023-03-03T06:02:30;2.20;99.90
57026;DHT22;43961;52.940;6.834;2023-03-03T06:04:56;2.20;99.90
57026;DHT22;43961;52.940;6.834;2023-03-03T06:07:22;2.20;99.90
57026;DHT22;43961;52.940;6.834;2023-03-03T06:09:47;2.20;99.90
57026;DHT22;43961;52.940;6.834;2023-03-03T06:12:13;2.20;99.90
57026;DHT22;43961;52.940;6.834;2023-03-03T06:14:39;2.20;99.90
57026;DHT22;43961;52.940;6.834;2023-03-03T06:17:04;2.20;99.90
57026;DHT22;43961;52.940;6.834;2023-03-03T06:19:30;2.20;99.90
57026;DHT22;43961;52.940;6.834;2023-03-03T06:21:56;2.20;99.90
57026;DHT22;43961;52.940;6.834;2023-03-03T06:24:22;2.20;99.90
57026;DHT22;43961;52.940;6.834;2023-03-03T06:26:50;2.20;99.90
57026;DHT22;43961;52.940;6.834;2023-03-03T06:29:16;2.20;99.90
57026;DHT22;43961;52.940;6.834;2023-03-03T06:31:42;2.20;99.90
57026;DHT22;43961;52.940;6.834;2023-03-03T06:34:09;2.20;99.90
57026;DHT22;43961;52.940;6.834;2023-03-03T06:36:35;2.20;99.90
57026;DHT22;43961;52.940;6.834;2023-03-03T06:39:01;2.20;99.90
57026;DHT22;43961;52.940;6.834;2023-03-03T06:41:26;2.20;99.90
57026;DHT22;43961;52.940;6.834;2023-03-03T06:43:52;2.20;99.90
57026;DHT22;43961;52.940;6.834;2023-03-03T06:46:17;2.20;99.90
57026;DHT22;43961;52.940;6.834;2023-03-03T06:48:43;2.20;99.90
57026;DHT22;43961;52.940;6.834;2023-03-03T06:51:29;2.20;99.90
57026;DHT22;43961;52.940;6.834;2023-03-03T06:53:57;2.20;99.90
57026;DHT22;43961;52.940;6.834;2023-03-03T06:56:24;2.20;99.90
57026;DHT22;43961;52.940;6.834;2023-03-03T06:58:56;2.20;99.90
57026;DHT22;43961;52.940;6.834;2023-03-03T07:01:22;2.20;99.90
57026;DHT22;43961;52.940;6.834;2023-03-03T07:03:49;2.20;99.90
57026;DHT22;43961;52.940;6.834;2023-03-03T07:06:23;2.30;99.90
57026;DHT22;43961;52.940;6.834;2023-03-03T07:08:50;2.30;99.90
57026;DHT22;43961;52.940;6.834;2023-03-03T07:11:19;2.30;99.90
57026;DHT22;43961;52.940;6.834;2023-03-03T07:13:53;2.30;99.90
57026;DHT22;43961;52.940;6.834;2023-03-03T07:16:24;2.30;99.90
57026;DHT22;43961;52.940;6.834;2023-03-03T07:18:52;2.40;99.90
57026;DHT22;43961;52.940;6.834;2023-03-03T07:21:36;2.40;99.90
57026;DHT22;43961;52.940;6.834;2023-03-03T07:24:27;2.40;99.90
57026;DHT22;43961;52.940;6.834;2023-03-03T07:29:32;2.50;99.90
57026;DHT22;43961;52.940;6.834;2023-03-03T07:32:00;2.50;99.90
57026;DHT22;43961;52.940;6.834;2023-03-03T07:34:35;2.50;99.90
57026;DHT22;43961;52.940;6.834;2023-03-03T07:37:10;2.60;99.90
57026;DHT22;43961;52.940;6.834;2023-03-03T07:39:39;2.60;99.90
57026;DHT22;43961;52.940;6.834;2023-03-03T07:44:46;2.70;99.90
57026;DHT22;43961;52.940;6.834;2023-03-03T07:47:25;2.70;99.90
57026;DHT22;43961;52.940;6.834;2023-03-03T07:50:14;2.70;99.90
57026;DHT22;43961;52.940;6.834;2023-03-03T07:53:11;2.80;99.90
57026;DHT22;43961;52.940;6.834;2023-03-03T07:55:40;2.80;99.90
57026;DHT22;43961;52.940;6.834;2023-03-03T08:03:15;2.80;99.90
57026;DHT22;43961;52.940;6.834;2023-03-03T08:05:51;2.90;99.90
57026;DHT22;43961;52.940;6.834;2023-03-03T08:08:35;2.90;99.90
57026;DHT22;43961;52.940;6.834;2023-03-03T08:11:06;2.90;99.90
57026;DHT22;43961;52.940;6.834;2023-03-03T08:18:39;3.00;99.90
57026;DHT22;43961;52.940;6.834;2023-03-03T08:21:20;3.10;99.90
57026;DHT22;43961;52.940;6.834;2023-03-03T08:23:47;3.10;99.90
57026;DHT22;43961;52.940;6.834;2023-03-03T08:26:25;3.10;99.90
57026;DHT22;43961;52.940;6.834;2023-03-03T08:28:53;3.20;99.90
57026;DHT22;43961;52.940;6.834;2023-03-03T08:31:20;3.20;99.90
57026;DHT22;43961;52.940;6.834;2023-03-03T08:33:46;3.30;99.90
57026;DHT22;43961;52.940;6.834;2023-03-03T08:36:12;3.40;99.90
57026;DHT22;43961;52.940;6.834;2023-03-03T08:38:40;3.40;99.90
57026;DHT22;43961;52.940;6.834;2023-03-03T08:41:05;3.50;99.90
57026;DHT22;43961;52.940;6.834;2023-03-03T08:43:31;3.50;99.90
57026;DHT22;43961;52.940;6.834;2023-03-03T08:46:00;3.60;99.90
57026;DHT22;43961;52.940;6.834;2023-03-03T08:48:27;3.60;99.90
57026;DHT22;43961;52.940;6.834;2023-03-03T08:51:02;3.70;99.90
57026;DHT22;43961;52.940;6.834;2023-03-03T08:53:28;3.80;99.90
57026;DHT22;43961;52.940;6.834;2023-03-03T08:55:54;3.80;99.90
57026;DHT22;43961;52.940;6.834;2023-03-03T08:58:20;3.90;99.90
57026;DHT22;43961;52.940;6.834;2023-03-03T09:00:46;3.90;99.90
57026;DHT22;43961;52.940;6.834;2023-03-03T09:03:12;4.00;99.90
57026;DHT22;43961;52.940;6.834;2023-03-03T09:05:38;4.10;99.90
57026;DHT22;43961;52.940;6.834;2023-03-03T09:08:05;4.20;99.90
57026;DHT22;43961;52.940;6.834;2023-03-03T09:10:31;4.30;99.90
57026;DHT22;43961;52.940;6.834;2023-03-03T09:13:02;4.30;99.90
57026;DHT22;43961;52.940;6.834;2023-03-03T09:15:31;4.40;99.90
57026;DHT22;43961;52.940;6.834;2023-03-03T09:18:01;4.40;99.90
57026;DHT22;43961;52.940;6.834;2023-03-03T09:20:44;4.50;99.90
57026;DHT22;43961;52.940;6.834;2023-03-03T09:25:52;4.40;99.90
57026;DHT22;43961;52.940;6.834;2023-03-03T09:28:28;4.40;99.90
57026;DHT22;43961;52.940;6.834;2023-03-03T09:31:00;4.30;99.90
57026;DHT22;43961;52.940;6.834;2023-03-03T09:33:42;4.40;99.90
57026;DHT22;43961;52.940;6.834;2023-03-03T09:38:46;4.40;99.90
57026;DHT22;43961;52.940;6.834;2023-03-03T09:46:57;4.40;99.90
57026;DHT22;43961;52.940;6.834;2023-03-03T09:49:32;4.30;99.90
57026;DHT22;43961;52.940;6.834;2023-03-03T09:54:55;4.30;99.90
57026;DHT22;43961;52.940;6.834;2023-03-03T10:06:02;4.40;99.90
57026;DHT22;43961;52.940;6.834;2023-03-03T10:08:51;4.40;99.90
57026;DHT22;43961;52.940;6.834;2023-03-03T10:25:12;4.50;99.90
57026;DHT22;43961;52.940;6.834;2023-03-03T10:36:00;4.70;99.90
57026;DHT22;43961;52.940;6.834;2023-03-03T10:38:40;4.80;99.90
57026;DHT22;43961;52.940;6.834;2023-03-03T10:55:47;5.20;99.90
57026;DHT22;43961;52.940;6.834;2023-03-03T10:58:49;5.20;99.90
57026;DHT22;43961;52.940;6.834;2023-03-03T11:04:45;5.30;99.90
57026;DHT22;43961;52.940;6.834;2023-03-03T11:16:21;5.70;99.90
57026;DHT22;43961;52.940;6.834;2023-03-03T11:24:33;6.00;99.90
57026;DHT22;43961;52.940;6.834;2023-03-03T11:35:31;6.40;99.90
57026;DHT22;43961;52.940;6.834;2023-03-03T11:38:31;6.50;99.90
57026;DHT22;43961;52.940;6.834;2023-03-03T11:43:37;6.60;99.90
57026;DHT22;43961;52.940;6.834;2023-03-03T11:46:13;6.70;99.90
57026;DHT22;43961;52.940;6.834;2023-03-03T11:49:02;6.80;99.90
57026;DHT22;43961;52.940;6.834;2023-03-03T11:51:49;6.90;99.90
57026;DHT22;43961;52.940;6.834;2023-03-03T11:55:10;7.00;99.90
57026;DHT22;43961;52.940;6.834;2023-03-03T12:06:02;7.30;99.90
57026;DHT22;43961;52.940;6.834;2023-03-03T12:08:55;7.30;99.90
57026;DHT22;43961;52.940;6.834;2023-03-03T12:14:27;7.50;99.90
57026;DHT22;43961;52.940;6.834;2023-03-03T12:17:18;7.60;99.90
57026;DHT22;43961;52.940;6.834;2023-03-03T12:25:48;7.80;99.90
57026;DHT22;43961;52.940;6.834;2023-03-03T12:28:18;7.80;99.90
57026;DHT22;43961;52.940;6.834;2023-03-03T12:31:02;7.80;99.90
57026;DHT22;43961;52.940;6.834;2023-03-03T12:33:58;7.90;99.90
57026;DHT22;43961;52.940;6.834;2023-03-03T12:41:56;8.00;99.90
57026;DHT22;43961;52.940;6.834;2023-03-03T12:44:50;8.00;99.90
57026;DHT22;43961;52.940;6.834;2023-03-03T12:55:20;8.10;99.90
57026;DHT22;43961;52.940;6.834;2023-03-03T12:58:24;8.20;99.90
57026;DHT22;43961;52.940;6.834;2023-03-03T13:01:14;8.30;99.90
57026;DHT22;43961;52.940;6.834;2023-03-03T13:06:32;8.40;99.90
57026;DHT22;43961;52.940;6.834;2023-03-03T13:09:54;8.40;99.90
57026;DHT22;43961;52.940;6.834;2023-03-03T13:14:56;8.40;99.90
57026;DHT22;43961;52.940;6.834;2023-03-03T13:20:02;8.30;99.90
57026;DHT22;43961;52.940;6.834;2023-03-03T13:22:56;8.20;99.90
57026;DHT22;43961;52.940;6.834;2023-03-03T13:25:52;8.30;99.90
57026;DHT22;43961;52.940;6.834;2023-03-03T13:28:32;8.30;99.90
57026;DHT22;43961;52.940;6.834;2023-03-03T13:31:04;8.40;99.90
57026;DHT22;43961;52.940;6.834;2023-03-03T13:33:34;8.30;99.90
57026;DHT22;43961;52.940;6.834;2023-03-03T13:36:09;8.30;99.90
57026;DHT22;43961;52.940;6.834;2023-03-03T13:38:40;8.40;99.90
57026;DHT22;43961;52.940;6.834;2023-03-03T13:43:56;8.40;99.90
57026;DHT22;43961;52.940;6.834;2023-03-03T13:46:36;8.40;99.90
57026;DHT22;43961;52.940;6.834;2023-03-03T13:49:28;8.60;99.90
57026;DHT22;43961;52.940;6.834;2023-03-03T13:52:09;8.70;99.90
57026;DHT22;43961;52.940;6.834;2023-03-03T13:54:52;8.80;99.90
57026;DHT22;43961;52.940;6.834;2023-03-03T14:06:07;8.70;99.90
57026;DHT22;43961;52.940;6.834;2023-03-03T14:13:58;8.60;99.90
57026;DHT22;43961;52.940;6.834;2023-03-03T14:16:48;8.50;99.90
57026;DHT22;43961;52.940;6.834;2023-03-03T14:19:46;8.60;99.90
57026;DHT22;43961;52.940;6.834;2023-03-03T14:25:02;8.60;99.90
57026;DHT22;43961;52.940;6.834;2023-03-03T14:27:59;8.70;99.90
57026;DHT22;43961;52.940;6.834;2023-03-03T14:30:40;8.70;99.90
57026;DHT22;43961;52.940;6.834;2023-03-03T14:35:41;8.60;99.90
57026;DHT22;43961;52.940;6.834;2023-03-03T14:40:34;8.50;99.90
57026;DHT22;43961;52.940;6.834;2023-03-03T14:43:17;8.50;99.90
57026;DHT22;43961;52.940;6.834;2023-03-03T14:45:43;8.60;99.90
57026;DHT22;43961;52.940;6.834;2023-03-03T14:48:18;8.60;99.90
57026;DHT22;43961;52.940;6.834;2023-03-03T14:53:20;8.60;99.90
57026;DHT22;43961;52.940;6.834;2023-03-03T14:55:48;8.60;99.90
57026;DHT22;43961;52.940;6.834;2023-03-03T14:58:33;8.70;99.90
57026;DHT22;43961;52.940;6.834;2023-03-03T15:06:48;8.50;99.90
57026;DHT22;43961;52.940;6.834;2023-03-03T15:09:23;8.40;99.90
57026;DHT22;43961;52.940;6.834;2023-03-03T15:11:57;8.50;99.90
57026;DHT22;43961;52.940;6.834;2023-03-03T15:14:35;8.40;99.90
57026;DHT22;43961;52.940;6.834;2023-03-03T15:22:36;8.60;99.90
57026;DHT22;43961;52.940;6.834;2023-03-03T15:36:38;8.10;99.90
57026;DHT22;43961;52.940;6.834;2023-03-03T15:41:47;8.00;99.90
57026;DHT22;43961;52.940;6.834;2023-03-03T15:44:38;7.90;99.90
57026;DHT22;43961;52.940;6.834;2023-03-03T15:47:51;7.80;99.90
57026;DHT22;43961;52.940;6.834;2023-03-03T15:53:44;7.70;99.90
57026;DHT22;43961;52.940;6.834;2023-03-03T15:56:40;7.60;99.90
57026;DHT22;43961;52.940;6.834;2023-03-03T16:04:36;7.50;99.90
57026;DHT22;43961;52.940;6.834;2023-03-03T16:10:02;7.50;99.90
57026;DHT22;43961;52.940;6.834;2023-03-03T16:31:08;7.20;99.90
57026;DHT22;43961;52.940;6.834;2023-03-03T16:41:52;7.00;99.90
57026;DHT22;43961;52.940;6.834;2023-03-03T16:53:06;6.90;99.90
57026;DHT22;43961;52.940;6.834;2023-03-03T16:55:35;6.90;99.90
57026;DHT22;43961;52.940;6.834;2023-03-03T17:06:49;6.80;99.90
57026;DHT22;43961;52.940;6.834;2023-03-03T17:10:04;6.80;99.90
57026;DHT22;43961;52.940;6.834;2023-03-03T17:15:13;6.70;99.90
57026;DHT22;43961;52.940;6.834;2023-03-03T17:17:57;6.70;99.90
57026;DHT22;43961;52.940;6.834;2023-03-03T17:20:49;6.60;99.90
57026;DHT22;43961;52.940;6.834;2023-03-03T17:23:41;6.60;99.90
57026;DHT22;43961;52.940;6.834;2023-03-03T17:26:30;6.60;99.90
57026;DHT22;43961;52.940;6.834;2023-03-03T17:29:23;6.60;99.90
57026;DHT22;43961;52.940;6.834;2023-03-03T17:32:13;6.60;99.90
57026;DHT22;43961;52.940;6.834;2023-03-03T17:38:21;6.50;99.90
57026;DHT22;43961;52.940;6.834;2023-03-03T17:46:49;6.50;99.90
57026;DHT22;43961;52.940;6.834;2023-03-03T18:06:26;6.30;99.90
57026;DHT22;43961;52.940;6.834;2023-03-03T18:09:08;6.30;99.90
57026;DHT22;43961;52.940;6.834;2023-03-03T18:11:58;6.30;99.90
57026;DHT22;43961;52.940;6.834;2023-03-03T18:17:20;6.30;99.90
57026;DHT22;43961;52.940;6.834;2023-03-03T18:22:45;6.30;99.90
57026;DHT22;43961;52.940;6.834;2023-03-03T18:25:13;6.30;99.90
57026;DHT22;43961;52.940;6.834;2023-03-03T18:30:30;6.20;99.90
57026;DHT22;43961;52.940;6.834;2023-03-03T18:33:10;6.20;99.90
57026;DHT22;43961;52.940;6.834;2023-03-03T18:35:41;6.20;99.90
57026;DHT22;43961;52.940;6.834;2023-03-03T18:43:46;6.20;99.90
57026;DHT22;43961;52.940;6.834;2023-03-03T18:51:48;6.20;99.90
57026;DHT22;43961;52.940;6.834;2023-03-03T19:04:36;6.10;99.90
57026;DHT22;43961;52.940;6.834;2023-03-03T19:10:03;6.10;99.90
57026;DHT22;43961;52.940;6.834;2023-03-03T19:12:56;6.10;99.90
57026;DHT22;43961;52.940;6.834;2023-03-03T19:18:14;6.10;99.90
57026;DHT22;43961;52.940;6.834;2023-03-03T19:23:50;6.00;99.90
57026;DHT22;43961;52.940;6.834;2023-03-03T19:29:22;6.00;99.90
57026;DHT22;43961;52.940;6.834;2023-03-03T19:32:18;6.10;99.90
57026;DHT22;43961;52.940;6.834;2023-03-03T19:35:48;6.00;99.90
57026;DHT22;43961;52.940;6.834;2023-03-03T19:43:57;6.00;99.90
57026;DHT22;43961;52.940;6.834;2023-03-03T19:52:01;6.00;99.90
57026;DHT22;43961;52.940;6.834;2023-03-03T20:12:02;5.90;99.90
57026;DHT22;43961;52.940;6.834;2023-03-03T20:15:21;5.90;99.90
57026;DHT22;43961;52.940;6.834;2023-03-03T20:20:47;5.80;99.90
57026;DHT22;43961;52.940;6.834;2023-03-03T20:26:17;5.80;99.90
57026;DHT22;43961;52.940;6.834;2023-03-03T20:34:30;5.80;99.90
57026;DHT22;43961;52.940;6.834;2023-03-03T20:42:30;5.80;99.90
57026;DHT22;43961;52.940;6.834;2023-03-03T20:48:18;5.80;99.90
57026;DHT22;43961;52.940;6.834;2023-03-03T20:53:49;5.80;99.90
57026;DHT22;43961;52.940;6.834;2023-03-03T20:59:12;5.80;99.90
57026;DHT22;43961;52.940;6.834;2023-03-03T21:04:32;5.80;99.90
57026;DHT22;43961;52.940;6.834;2023-03-03T21:07:02;5.80;99.90
57026;DHT22;43961;52.940;6.834;2023-03-03T21:09:36;5.80;99.90
57026;DHT22;43961;52.940;6.834;2023-03-03T21:12:32;5.80;99.90
57026;DHT22;43961;52.940;6.834;2023-03-03T21:15:02;5.80;99.90
57026;DHT22;43961;52.940;6.834;2023-03-03T21:17:30;5.80;99.90
57026;DHT22;43961;52.940;6.834;2023-03-03T21:20:23;5.80;99.90
57026;DHT22;43961;52.940;6.834;2023-03-03T21:22:50;5.80;99.90
57026;DHT22;43961;52.940;6.834;2023-03-03T21:25:41;5.80;99.90
57026;DHT22;43961;52.940;6.834;2023-03-03T21:28:21;5.80;99.90
57026;DHT22;43961;52.940;6.834;2023-03-03T21:36:17;5.80;99.90
57026;DHT22;43961;52.940;6.834;2023-03-03T21:38:44;5.80;99.90
57026;DHT22;43961;52.940;6.834;2023-03-03T21:41:11;5.80;99.90
57026;DHT22;43961;52.940;6.834;2023-03-03T21:43:43;5.80;99.90
57026;DHT22;43961;52.940;6.834;2023-03-03T21:46:09;5.80;99.90
57026;DHT22;43961;52.940;6.834;2023-03-03T21:48:40;5.80;99.90
57026;DHT22;43961;52.940;6.834;2023-03-03T21:51:07;5.80;99.90
57026;DHT22;43961;52.940;6.834;2023-03-03T21:53:33;5.80;99.90
57026;DHT22;43961;52.940;6.834;2023-03-03T21:55:59;5.80;99.90
57026;DHT22;43961;52.940;6.834;2023-03-03T21:58:25;5.80;99.90
57026;DHT22;43961;52.940;6.834;2023-03-03T22:00:51;5.80;99.90
57026;DHT22;43961;52.940;6.834;2023-03-03T22:03:16;5.80;99.90
57026;DHT22;43961;52.940;6.834;2023-03-03T22:05:45;5.90;99.90
57026;DHT22;43961;52.940;6.834;2023-03-03T22:08:13;5.90;99.90
57026;DHT22;43961;52.940;6.834;2023-03-03T22:10:40;5.80;99.90
57026;DHT22;43961;52.940;6.834;2023-03-03T22:13:05;5.80;99.90
57026;DHT22;43961;52.940;6.834;2023-03-03T22:15:32;5.80;99.90
57026;DHT22;43961;52.940;6.834;2023-03-03T22:17:59;5.80;99.90
57026;DHT22;43961;52.940;6.834;2023-03-03T22:20:24;5.80;99.90
57026;DHT22;43961;52.940;6.834;2023-03-03T22:22:50;5.80;99.90
57026;DHT22;43961;52.940;6.834;2023-03-03T22:25:16;5.80;99.90
57026;DHT22;43961;52.940;6.834;2023-03-03T22:27:42;5.80;99.90
57026;DHT22;43961;52.940;6.834;2023-03-03T22:30:08;5.80;99.90
57026;DHT22;43961;52.940;6.834;2023-03-03T22:32:33;5.80;99.90
57026;DHT22;43961;52.940;6.834;2023-03-03T22:34:59;5.80;99.90
57026;DHT22;43961;52.940;6.834;2023-03-03T22:37:25;5.80;99.90
57026;DHT22;43961;52.940;6.834;2023-03-03T22:39:50;5.80;99.90
57026;DHT22;43961;52.940;6.834;2023-03-03T22:42:16;5.80;99.90
57026;DHT22;43961;52.940;6.834;2023-03-03T22:44:43;5.80;99.90
57026;DHT22;43961;52.940;6.834;2023-03-03T22:47:08;5.80;99.90
57026;DHT22;43961;52.940;6.834;2023-03-03T22:49:34;5.80;99.90
57026;DHT22;43961;52.940;6.834;2023-03-03T22:52:00;5.80;99.90
57026;DHT22;43961;52.940;6.834;2023-03-03T22:54:27;5.80;99.90